Time;durP1;ratioP1;P1;durP2;ratioP2;P2;SDS_P1;SDS_P2;PMS_P1;PMS_P2;Temp;Humidity;BMP_temperature;BMP_pressure;BME280_temperature;BME280_humidity;BME280_pressure;Samples;Min_cycle;Max_cycle;Signal;HPM_P1;HPM_P2
2022/11/01 00:00:40;;;;;;;17.97;13.43;;;;;;;14.92;100.00;102018.94;2071608;28;20449;-59
2022/11/01 00:01:41;;;;;;;16.83;13.53;;;;;;;14.28;100.00;101920.91;2070729;28;20178;-60
2022/11/01 00:02:41;;;;;;;19.80;13.73;;;;;;;14.93;100.00;102023.28;2070797;28;20637;-60
2022/11/01 00:03:42;;;;;;;19.83;13.70;;;;;;;14.94;100.00;102022.06;2072322;28;20679;-60
2022/11/01 00:04:42;;;;;;;17.13;14.03;;;;;;;14.94;100.00;102032.44;2072193;28;20619;-60
2022/11/01 00:05:44;;;;;;;16.17;13.27;;;;;;;14.95;100.00;102029.22;2071678;28;20219;-60
2022/11/01 00:06:45;;;;;;;16.67;13.07;;;;;;;14.68;100.00;101989.50;2072376;28;20234;-60
2022/11/01 00:07:45;;;;;;;18.07;13.07;;;;;;;14.91;100.00;102022.91;2072144;28;20472;-59
2022/11/01 00:08:46;;;;;;;17.07;13.00;;;;;;;14.74;100.00;102000.94;2071184;28;20196;-60
2022/11/01 00:09:46;;;;;;;17.80;13.53;;;;;;;14.92;100.00;102027.31;2072084;28;20227;-60
2022/11/01 00:10:47;;;;;;;17.47;12.47;;;;;;;14.89;100.00;102028.16;2071291;28;20601;-60
2022/11/01 00:11:47;;;;;;;19.00;13.07;;;;;;;14.88;100.00;102021.00;2071210;28;20634;-59
2022/11/01 00:12:47;;;;;;;18.83;13.93;;;;;;;14.87;100.00;102029.78;2072560;28;20183;-59
2022/11/01 00:13:49;;;;;;;14.70;12.87;;;;;;;14.84;100.00;102027.84;2071820;28;20682;-60
2022/11/01 00:14:49;;;;;;;18.83;13.47;;;;;;;14.82;100.00;102021.91;2072049;28;20185;-60
2022/11/01 00:15:50;;;;;;;14.93;12.43;;;;;;;14.81;100.00;102018.31;2071695;28;20953;-60
2022/11/01 00:16:50;;;;;;;17.47;12.73;;;;;;;14.80;100.00;102016.00;2072098;28;20196;-60
2022/11/01 00:17:50;;;;;;;17.50;12.90;;;;;;;14.81;100.00;102023.13;2071124;28;20201;-60
2022/11/01 00:18:51;;;;;;;19.90;12.97;;;;;;;14.82;100.00;102019.13;2071450;28;20878;-60
2022/11/01 00:19:51;;;;;;;16.10;12.43;;;;;;;14.83;100.00;102015.91;2071900;28;20188;-60
2022/11/01 00:20:52;;;;;;;16.50;12.70;;;;;;;14.82;100.00;102021.91;2072278;28;20262;-60
2022/11/01 00:21:52;;;;;;;16.63;13.47;;;;;;;14.81;100.00;102023.13;2072235;28;20193;-60
2022/11/01 00:22:53;;;;;;;18.70;13.17;;;;;;;14.80;100.00;102021.56;2072130;28;20210;-60
2022/11/01 00:23:53;;;;;;;20.23;13.77;;;;;;;14.80;100.00;102022.34;2071737;28;20217;-60
2022/11/01 00:24:53;;;;;;;18.20;13.07;;;;;;;14.81;100.00;102017.56;2071950;28;20766;-59
2022/11/01 00:25:58;;;;;;;15.90;12.63;;;;;;;14.80;100.00;102018.78;2071755;28;20319;-60
2022/11/01 00:26:59;;;;;;;16.20;12.73;;;;;;;14.79;100.00;102026.34;2072062;28;20183;-60
2022/11/01 00:27:59;;;;;;;15.13;12.63;;;;;;;14.76;100.00;102018.06;2071617;28;20438;-60
2022/11/01 00:29:00;;;;;;;17.27;12.90;;;;;;;14.77;100.00;102014.03;2072076;28;20185;-60
2022/11/01 00:30:00;;;;;;;18.80;12.80;;;;;;;14.77;100.00;102019.63;2071853;28;20237;-60
2022/11/01 00:31:01;;;;;;;16.97;12.07;;;;;;;14.73;100.00;102019.69;2071543;28;20181;-59
2022/11/01 00:32:01;;;;;;;16.03;12.47;;;;;;;14.69;100.00;102024.53;2071549;28;20277;-60
2022/11/01 00:33:02;;;;;;;17.03;12.80;;;;;;;14.47;100.00;101989.88;2071423;28;20193;-60
2022/11/01 00:34:04;;;;;;;15.23;12.20;;;;;;;14.67;100.00;102015.81;2071637;28;20207;-60
2022/11/01 00:35:05;;;;;;;17.03;12.40;;;;;;;14.64;100.00;102011.09;2071488;28;20189;-60
2022/11/01 00:36:07;;;;;;;16.47;12.33;;;;;;;14.62;100.00;102007.94;2071911;28;20425;-59
2022/11/01 00:37:07;;;;;;;17.90;13.03;;;;;;;14.59;100.00;102008.00;2071973;28;20720;-60
2022/11/01 00:38:08;;;;;;;18.43;12.23;;;;;;;14.56;100.00;102006.84;2072410;28;20817;-60
2022/11/01 00:39:12;;;;;;;18.27;13.50;;;;;;;14.55;100.00;102010.06;2072086;28;20205;-60
2022/11/01 00:40:12;;;;;;;14.73;10.60;;;;;;;14.53;100.00;102016.06;2070731;28;20184;-59
2022/11/01 00:41:14;;;;;;;17.90;10.40;;;;;;;13.26;100.00;101807.63;2071187;28;20455;-59
2022/11/01 00:42:14;;;;;;;13.40;10.60;;;;;;;14.46;100.00;102002.28;2072177;28;20193;-60
2022/11/01 00:43:15;;;;;;;18.00;12.20;;;;;;;14.30;100.00;101976.25;2071782;28;20432;-60
2022/11/01 00:44:15;;;;;;;16.53;12.37;;;;;;;14.41;100.00;102008.34;2071431;28;20709;-60
2022/11/01 00:45:16;;;;;;;14.07;11.33;;;;;;;14.37;100.00;102006.81;2071069;28;20195;-60
2022/11/01 00:46:17;;;;;;;14.37;11.53;;;;;;;14.35;100.00;102007.22;2071850;28;20212;-60
2022/11/01 00:47:17;;;;;;;17.17;12.60;;;;;;;14.33;100.00;102008.84;2072263;28;20196;-60
2022/11/01 00:48:17;;;;;;;17.07;12.43;;;;;;;14.30;100.00;102004.91;2070927;28;20189;-60
2022/11/01 00:49:18;;;;;;;16.03;11.77;;;;;;;14.26;100.00;102011.78;2070375;28;20193;-59
2022/11/01 00:50:18;;;;;;;14.90;11.63;;;;;;;14.16;100.00;102004.34;2071315;28;20199;-60
2022/11/01 00:51:19;;;;;;;14.83;11.40;;;;;;;14.17;100.00;102009.50;2071671;28;20702;-60
2022/11/01 00:52:19;;;;;;;16.17;11.60;;;;;;;14.14;100.00;102013.13;2071569;28;20210;-60
2022/11/01 00:53:20;;;;;;;17.60;12.20;;;;;;;14.12;100.00;102012.78;2071568;28;20180;-60
2022/11/01 00:54:21;;;;;;;17.63;11.83;;;;;;;14.11;100.00;102014.00;2071698;28;20187;-59
2022/11/01 00:55:22;;;;;;;15.70;11.83;;;;;;;14.08;100.00;102012.03;2070767;28;20529;-60
2022/11/01 00:56:23;;;;;;;16.30;12.27;;;;;;;14.07;100.00;102013.25;2072024;28;20242;-60
2022/11/01 00:57:23;;;;;;;18.93;12.00;;;;;;;14.06;100.00;102005.31;2071830;28;20192;-60
2022/11/01 00:58:23;;;;;;;16.40;12.20;;;;;;;13.25;100.00;101889.56;2071819;28;20463;-60
2022/11/01 00:59:24;;;;;;;18.00;11.97;;;;;;;13.79;100.00;101977.47;2071880;28;20263;-59
2022/11/01 01:00:25;;;;;;;15.03;11.40;;;;;;;13.73;100.00;101964.44;2071439;28;20242;-60
2022/11/01 01:01:25;;;;;;;18.27;12.00;;;;;;;13.97;100.00;102013.41;2070939;28;20265;-60
2022/11/01 01:02:26;;;;;;;17.50;13.00;;;;;;;13.74;100.00;101974.38;2071818;28;20178;-60
2022/11/01 01:03:26;;;;;;;17.67;12.07;;;;;;;13.89;100.00;102009.94;2072218;28;20177;-60
2022/11/01 01:04:27;;;;;;;18.67;13.13;;;;;;;13.85;100.00;102006.44;2070450;28;20273;-60
2022/11/01 01:05:27;;;;;;;15.57;11.80;;;;;;;13.85;100.00;102012.03;2070434;28;20710;-60
2022/11/01 01:06:28;;;;;;;18.17;11.83;;;;;;;13.82;100.00;102000.91;2070527;28;20580;-60
2022/11/01 01:07:28;;;;;;;15.73;11.93;;;;;;;13.84;100.00;102013.22;2071681;28;20200;-59
2022/11/01 01:08:29;;;;;;;22.10;12.20;;;;;;;13.80;100.00;102009.72;2071283;28;20617;-61
2022/11/01 01:09:29;;;;;;;18.70;12.63;;;;;;;13.13;100.00;101908.84;2071440;28;20206;-60
2022/11/01 01:10:30;;;;;;;19.23;13.33;;;;;;;13.79;100.00;102015.69;2071049;28;20232;-60
2022/11/01 01:11:30;;;;;;;15.27;12.00;;;;;;;13.78;100.00;102012.13;2070956;28;20205;-61
2022/11/01 01:12:31;;;;;;;15.77;11.80;;;;;;;13.78;100.00;102019.69;2071810;28;20702;-60
2022/11/01 01:13:31;;;;;;;19.83;11.53;;;;;;;13.77;100.00;102013.31;2071551;28;20519;-60
2022/11/01 01:14:32;;;;;;;19.40;12.30;;;;;;;13.78;100.00;102011.34;2071162;28;20251;-60
2022/11/01 01:15:33;;;;;;;14.27;11.33;;;;;;;13.74;100.00;102018.97;2071242;28;20358;-61
2022/11/01 01:16:33;;;;;;;17.27;11.70;;;;;;;13.71;100.00;102011.44;2071682;28;20452;-60
2022/11/01 01:17:34;;;;;;;16.53;11.10;;;;;;;12.96;100.00;101893.19;2070927;28;20186;-60
2022/11/01 01:18:35;;;;;;;14.33;11.77;;;;;;;13.69;100.00;102011.84;2071497;28;20192;-60
2022/11/01 01:19:36;;;;;;;15.20;11.53;;;;;;;13.63;100.00;102009.97;2071880;28;20177;-60
2022/11/01 01:20:36;;;;;;;17.53;11.97;;;;;;;13.60;100.00;102000.44;2071579;28;20567;-60
2022/11/01 01:21:37;;;;;;;18.93;12.27;;;;;;;13.68;100.00;102015.84;2071194;28;20189;-60
2022/11/01 01:22:37;;;;;;;15.97;12.10;;;;;;;13.66;100.00;102015.47;2071545;28;20187;-60
2022/11/01 01:23:37;;;;;;;15.93;11.70;;;;;;;13.66;100.00;102015.47;2071685;28;20185;-60
2022/11/01 01:24:44;;;;;;;17.70;12.53;;;;;;;13.64;100.00;102023.47;2070611;28;20314;-61
2022/11/01 01:25:44;;;;;;;14.60;11.70;;;;;;;13.47;100.00;101995.88;2070340;28;20194;-60
2022/11/01 01:26:45;;;;;;;15.80;12.20;;;;;;;13.56;100.00;102016.41;2071401;28;20511;-60
2022/11/01 01:27:45;;;;;;;22.97;12.70;;;;;;;13.55;100.00;102014.06;2071063;28;20576;-60
2022/11/01 01:28:46;;;;;;;15.37;12.90;;;;;;;13.48;100.00;102020.50;2072034;28;20181;-60
2022/11/01 01:29:46;;;;;;;14.83;12.33;;;;;;;13.52;100.00;102020.47;2071599;28;20266;-60
2022/11/01 01:30:47;;;;;;;16.90;12.40;;;;;;;13.53;100.00;102024.84;2071643;28;20177;-59
2022/11/01 01:31:49;;;;;;;15.57;11.87;;;;;;;12.78;100.00;101904.50;2071449;28;20666;-60
2022/11/01 01:32:49;;;;;;;16.37;12.93;;;;;;;13.50;100.00;102022.88;2070512;28;20791;-59
2022/11/01 01:33:50;;;;;;;17.30;12.70;;;;;;;13.49;100.00;102027.69;2071459;28;20892;-60
2022/11/01 01:34:50;;;;;;;15.77;12.87;;;;;;;13.48;100.00;102023.28;2071206;28;20577;-60
2022/11/01 01:35:51;;;;;;;22.87;15.00;;;;;;;13.47;100.00;102018.94;2071008;28;20192;-60
2022/11/01 01:36:51;;;;;;;21.83;15.50;;;;;;;13.31;100.00;102026.31;2071975;28;20189;-60
2022/11/01 01:37:52;;;;;;;20.10;15.03;;;;;;;13.43;100.00;102028.56;2071568;28;20212;-60
2022/11/01 01:38:52;;;;;;;21.50;15.33;;;;;;;13.45;100.00;102035.28;2070475;28;20585;-60
2022/11/01 01:39:53;;;;;;;19.43;13.53;;;;;;;13.43;100.00;102032.09;2070454;28;20645;-60
2022/11/01 01:40:53;;;;;;;18.13;14.57;;;;;;;13.45;100.00;102035.28;2071211;28;20182;-59
2022/11/01 01:41:56;;;;;;;18.83;12.97;;;;;;;13.45;100.00;102034.47;2071626;28;20257;-60
2022/11/01 01:42:57;;;;;;;14.90;12.63;;;;;;;13.44;100.00;102030.13;2070816;28;20671;-60
2022/11/01 01:43:58;;;;;;;16.47;12.90;;;;;;;13.44;100.00;102036.50;2071084;28;20930;-60
2022/11/01 01:44:58;;;;;;;21.80;14.07;;;;;;;13.43;100.00;102034.88;2071320;28;20185;-60
2022/11/01 01:45:59;;;;;;;17.53;14.67;;;;;;;13.44;100.00;102032.91;2071358;28;20205;-60
2022/11/01 01:46:59;;;;;;;17.57;13.40;;;;;;;13.45;100.00;102037.25;2078531;28;20682;-60
2022/11/01 01:48:08;;;;;;;18.43;13.37;;;;;;;13.43;100.00;102039.69;2078124;28;20191;-60
2022/11/01 01:49:08;;;;;;;18.57;14.17;;;;;;;13.42;100.00;102040.91;2071473;28;20654;-63
2022/11/01 01:50:12;;;;;;;17.80;13.60;;;;;;;13.38;100.00;102042.94;2070721;28;20905;-60
2022/11/01 01:51:16;;;;;;;18.00;13.87;;;;;;;13.35;100.00;102038.19;2071187;28;20202;-60
2022/11/01 01:52:18;;;;;;;22.70;15.70;;;;;;;12.57;100.00;101929.00;2071107;28;20455;-60
2022/11/01 01:53:27;;;;;;;20.50;16.40;;;;;;;12.48;100.00;101906.44;2071064;28;20432;-59
2022/11/01 01:54:27;;;;;;;21.23;16.63;;;;;;;13.33;100.00;102037.81;2069527;28;20432;-60
2022/11/01 01:55:59;;;;;;;21.07;15.57;;;;;;;12.28;100.00;101878.50;2070172;28;20424;-60
2022/11/01 01:56:59;;;;;;;20.50;15.73;;;;;;;13.33;100.00;102043.41;2066779;28;20237;-60
2022/11/01 01:58:00;;;;;;;20.53;16.93;;;;;;;13.30;100.00;102047.00;2070550;28;20435;-60
2022/11/01 01:59:03;;;;;;;19.73;16.33;;;;;;;13.29;100.00;102048.22;2071560;28;20189;-59
2022/11/01 02:00:04;;;;;;;20.80;16.53;;;;;;;13.22;100.00;102040.72;2071316;28;20199;-60
2022/11/01 02:01:04;;;;;;;21.47;16.00;;;;;;;13.30;100.00;102044.22;2071148;28;20449;-60
2022/11/01 02:02:05;;;;;;;23.30;16.73;;;;;;;13.24;100.00;102045.88;2071304;28;20465;-60
2022/11/01 02:03:06;;;;;;;22.10;16.50;;;;;;;13.29;100.00;102051.00;2070621;28;20268;-61
2022/11/01 02:04:32;;;;;;;22.87;16.03;;;;;;;13.14;100.00;102035.66;2069824;28;20431;-60
2022/11/01 02:05:43;;;;;;;21.47;15.40;;;;;;;13.26;100.00;102054.59;2071059;28;20422;-60
2022/11/01 02:06:43;;;;;;;20.73;15.63;;;;;;;13.25;100.00;102059.41;2071073;28;20419;-59
2022/11/01 02:07:44;;;;;;;23.07;15.87;;;;;;;13.23;100.00;102059.00;2071450;28;20690;-60
2022/11/01 02:08:48;;;;;;;23.07;16.50;;;;;;;13.21;100.00;102071.78;2071171;28;20197;-60
2022/11/01 02:09:49;;;;;;;20.40;15.03;;;;;;;12.79;100.00;102006.22;2070668;28;20486;-60
2022/11/01 02:10:50;;;;;;;24.20;16.80;;;;;;;13.25;100.00;102064.97;2071365;28;20449;-60
2022/11/01 02:11:50;;;;;;;20.77;15.47;;;;;;;13.27;100.00;102059.00;2070962;28;20463;-60
2022/11/01 02:12:51;;;;;;;18.90;15.10;;;;;;;13.28;100.00;102063.34;2071276;28;20193;-60
2022/11/01 02:13:51;;;;;;;21.00;16.20;;;;;;;13.26;100.00;102062.97;2071025;28;20193;-61
2022/11/01 02:14:52;;;;;;;19.03;15.40;;;;;;;13.26;100.00;102058.19;2071044;28;20177;-59
2022/11/01 02:15:59;;;;;;;20.37;15.20;;;;;;;13.27;100.00;102062.53;2070731;28;20686;-60
2022/11/01 02:17:15;;;;;;;19.37;15.23;;;;;;;13.24;100.00;102060.59;2070989;28;20193;-59
2022/11/01 02:18:36;;;;;;;21.30;14.73;;;;;;;13.22;100.00;102065.00;2071224;28;20418;-60
2022/11/01 02:19:54;;;;;;;18.77;14.50;;;;;;;13.22;100.00;102065.78;2070311;28;20786;-60
2022/11/01 02:21:36;;;;;;;22.77;15.07;;;;;;;13.21;100.00;102071.78;2070929;28;20428;-60
2022/11/01 02:23:21;;;;;;;19.73;15.40;;;;;;;13.20;100.00;102073.78;2062288;28;20524;-59
2022/11/01 02:24:52;;;;;;;17.30;14.30;;;;;;;13.16;100.00;102072.25;2039103;28;20441;-59
2022/11/01 02:26:08;;;;;;;23.30;15.77;;;;;;;13.15;100.00;102070.66;2070455;28;20451;-59
2022/11/01 02:27:13;;;;;;;21.47;16.07;;;;;;;13.13;100.00;102068.31;2070809;28;20435;-59
2022/11/01 02:28:22;;;;;;;18.63;15.40;;;;;;;13.14;100.00;102081.00;2071431;28;20454;-60
2022/11/01 02:29:33;;;;;;;20.53;15.57;;;;;;;13.13;100.00;102079.44;2071504;28;20440;-60
2022/11/01 02:30:39;;;;;;;21.90;15.60;;;;;;;13.13;100.00;102084.19;2071379;28;20449;-60
2022/11/01 02:31:58;;;;;;;21.37;15.93;;;;;;;13.00;100.00;102058.91;2071067;28;21036;-60
2022/11/01 02:33:13;;;;;;;25.07;15.60;;;;;;;13.13;100.00;102084.19;2071092;28;20552;-60
2022/11/01 02:34:25;;;;;;;19.03;15.33;;;;;;;13.11;100.00;102078.28;2070604;28;20428;-60
2022/11/01 02:35:53;;;;;;;19.90;15.73;;;;;;;13.10;100.00;102080.25;2068913;28;20539;-60
2022/11/01 02:36:59;;;;;;;19.03;14.93;;;;;;;13.11;100.00;102086.63;2070386;28;20412;-60
2022/11/01 02:38:20;;;;;;;20.60;15.60;;;;;;;13.11;100.00;102081.81;2070613;28;20419;-60
2022/11/01 02:39:31;;;;;;;23.10;16.37;;;;;;;13.03;100.00;102076.75;2070696;28;20940;-61
2022/11/01 02:40:38;;;;;;;24.23;15.80;;;;;;;13.10;100.00;102088.59;2071093;28;20481;-61
2022/11/01 02:41:46;;;;;;;19.63;15.83;;;;;;;13.09;100.00;102089.81;2070626;28;20431;-60
2022/11/01 02:42:54;;;;;;;23.20;16.20;;;;;;;13.09;100.00;102086.22;2071382;28;20447;-59
2022/11/01 02:44:00;;;;;;;17.50;15.57;;;;;;;13.08;100.00;102091.03;2070583;28;20423;-60
2022/11/01 02:45:26;;;;;;;19.87;16.20;;;;;;;13.08;100.00;102091.03;2070951;28;20427;-60
2022/11/01 02:47:49;;;;;;;19.47;14.67;;;;;;;13.06;100.00;102090.63;2070852;28;20429;-60
2022/11/01 02:48:49;;;;;;;22.83;15.83;;;;;;;13.05;100.00;102099.38;2071198;28;20534;-60
2022/11/01 02:49:54;;;;;;;20.73;13.43;;;;;;;13.06;100.00;102090.63;2070361;28;20694;-59
2022/11/01 02:50:56;;;;;;;19.47;13.60;;;;;;;13.01;100.00;102090.31;2070838;28;20213;-60
2022/11/01 02:51:58;;;;;;;21.80;13.83;;;;;;;13.03;100.00;102087.88;2070904;28;20944;-60
2022/11/01 02:53:00;;;;;;;18.20;13.53;;;;;;;13.02;100.00;102094.66;2071082;28;20528;-60
2022/11/01 02:54:09;;;;;;;20.13;13.43;;;;;;;12.27;100.00;101990.88;2071119;28;20421;-60
2022/11/01 02:55:34;;;;;;;21.83;15.37;;;;;;;13.00;100.00;102092.28;2070446;28;20544;-60
2022/11/01 02:56:35;;;;;;;19.93;14.83;;;;;;;13.00;100.00;102094.28;2070647;28;20886;-60
2022/11/01 02:57:39;;;;;;;20.93;15.20;;;;;;;12.98;100.00;102097.50;2071213;28;20979;-60
2022/11/01 02:58:41;;;;;;;21.00;15.23;;;;;;;12.97;100.00;102089.53;2071367;28;20463;-59
2022/11/01 02:59:46;;;;;;;19.93;15.00;;;;;;;12.95;100.00;102103.03;2071435;28;20424;-59
2022/11/01 03:00:47;;;;;;;18.93;12.87;;;;;;;12.92;100.00;102110.22;2070907;28;20474;-60
2022/11/01 03:01:55;;;;;;;19.57;13.70;;;;;;;12.89;100.00;102105.50;2070398;28;20476;-60
2022/11/01 03:02:55;;;;;;;16.17;12.57;;;;;;;12.91;100.00;102105.09;2071013;28;20183;-59
2022/11/01 03:03:57;;;;;;;20.20;13.17;;;;;;;12.83;100.00;102098.00;2069995;28;20555;-59
2022/11/01 03:04:58;;;;;;;19.40;12.60;;;;;;;12.64;100.00;102067.97;2070010;28;20195;-60
2022/11/01 03:05:58;;;;;;;22.77;13.10;;;;;;;12.89;100.00;102101.91;2070647;28;20442;-60
2022/11/01 03:07:03;;;;;;;20.47;12.30;;;;;;;12.86;100.00;102111.09;2070544;28;20236;-60
2022/11/01 03:08:09;;;;;;;21.07;12.77;;;;;;;12.86;100.00;102106.31;2070507;28;20176;-60
2022/11/01 03:09:11;;;;;;;22.30;12.77;;;;;;;12.82;100.00;102096.44;2071281;28;20462;-59
2022/11/01 03:10:12;;;;;;;25.80;13.70;;;;;;;12.80;100.00;102105.19;2071820;28;20509;-60
2022/11/01 03:11:16;;;;;;;24.67;13.77;;;;;;;12.77;100.00;102105.22;2072554;28;20423;-60
2022/11/01 03:12:24;;;;;;;22.60;13.27;;;;;;;12.75;100.00;102118.75;2072236;28;20255;-60
2022/11/01 03:13:34;;;;;;;23.10;13.47;;;;;;;12.74;100.00;102104.03;2072575;28;20944;-60
2022/11/01 03:14:57;;;;;;;22.13;12.47;;;;;;;12.71;100.00;102107.63;2072032;28;20455;-59
2022/11/01 03:16:22;;;;;;;23.10;13.13;;;;;;;12.06;100.00;102013.28;2071785;28;20409;-60
2022/11/01 03:17:46;;;;;;;18.47;13.13;;;;;;;11.61;100.00;101952.50;2071740;28;29622;-60
2022/11/01 03:19:15;;;;;;;30.53;13.27;;;;;;;12.52;100.00;102108.22;2071573;28;20532;-60
2022/11/01 03:20:47;;;;;;;23.97;13.30;;;;;;;11.49;100.00;101964.88;2064117;28;20837;-60
2022/11/01 03:22:02;;;;;;;24.50;13.40;;;;;;;12.01;100.00;102043.50;2071558;28;20465;-59
2022/11/01 03:23:04;;;;;;;25.10;13.20;;;;;;;12.43;100.00;102121.00;2072044;28;20416;-60
2022/11/01 03:24:14;;;;;;;18.33;12.60;;;;;;;12.41;100.00;102115.84;2071868;28;20426;-60
2022/11/01 03:25:38;;;;;;;15.13;11.77;;;;;;;12.37;100.00;102126.22;2071185;28;20419;-60
2022/11/01 03:26:40;;;;;;;22.33;12.27;;;;;;;12.33;100.00;102125.44;2072560;28;20590;-59
2022/11/01 03:27:44;;;;;;;15.33;11.60;;;;;;;12.29;100.00;102127.44;2071407;28;20458;-60
2022/11/01 03:28:51;;;;;;;14.23;10.90;;;;;;;12.28;100.00;102130.63;2072519;28;20963;-59
2022/11/01 03:29:58;;;;;;;16.83;11.57;;;;;;;12.27;100.00;102129.06;2072586;28;20506;-60
2022/11/01 03:31:05;;;;;;;12.00;10.43;;;;;;;11.42;100.00;102001.00;2072457;28;20437;-60
2022/11/01 03:32:06;;;;;;;16.10;11.07;;;;;;;11.27;100.00;101996.69;2072466;28;20424;-60
2022/11/01 03:33:09;;;;;;;14.20;11.33;;;;;;;12.14;100.00;102125.19;2072879;28;20509;-60
2022/11/01 03:34:16;;;;;;;17.23;12.03;;;;;;;12.19;100.00;102135.88;2072042;28;20937;-60
2022/11/01 03:35:39;;;;;;;18.37;11.83;;;;;;;12.15;100.00;102138.66;2071213;28;20439;-59
2022/11/01 03:36:47;;;;;;;17.50;12.30;;;;;;;12.10;100.00;102136.31;2071465;28;20946;-60
2022/11/01 03:37:50;;;;;;;14.20;12.17;;;;;;;12.06;100.00;102138.34;2071992;28;20469;-59
2022/11/01 03:39:00;;;;;;;19.00;12.27;;;;;;;11.99;100.00;102135.59;2072349;28;20525;-60
2022/11/01 03:40:04;;;;;;;15.37;12.00;;;;;;;12.03;100.00;102144.69;2072162;28;20797;-60
2022/11/01 03:41:10;;;;;;;18.50;11.80;;;;;;;12.01;100.00;102141.53;2072248;28;20933;-60
2022/11/01 03:42:15;;;;;;;18.83;12.80;;;;;;;12.00;100.00;102139.16;2071719;28;20454;-59
2022/11/01 03:43:18;;;;;;;16.37;11.10;;;;;;;11.96;100.00;102141.16;2072226;28;20427;-60
2022/11/01 03:44:19;;;;;;;15.67;11.43;;;;;;;11.93;100.00;102142.75;2071503;28;20559;-60
2022/11/01 03:45:23;;;;;;;17.77;11.90;;;;;;;11.93;100.00;102151.09;2070993;28;20439;-59
2022/11/01 03:46:25;;;;;;;14.73;11.73;;;;;;;11.88;100.00;102140.41;2072373;28;20190;-60
2022/11/01 03:47:26;;;;;;;14.60;11.17;;;;;;;11.71;100.00;102107.97;2071782;28;20516;-59
2022/11/01 03:48:26;;;;;;;16.37;10.97;;;;;;;11.08;100.00;102022.19;2070831;28;20442;-60
2022/11/01 03:49:27;;;;;;;13.87;10.60;;;;;;;11.83;100.00;102145.63;2071803;28;20515;-60
2022/11/01 03:50:28;;;;;;;15.30;11.50;;;;;;;11.76;100.00;102146.44;2071915;28;20183;-59
2022/11/01 03:51:28;;;;;;;13.50;11.23;;;;;;;11.77;100.00;102148.00;2072681;28;20227;-60
2022/11/01 03:52:29;;;;;;;18.43;13.37;;;;;;;11.72;100.00;102148.44;2071959;28;20441;-60
2022/11/01 03:53:29;;;;;;;18.67;13.77;;;;;;;11.73;100.00;102143.69;2071777;28;20597;-59
2022/11/01 03:54:30;;;;;;;19.73;14.00;;;;;;;11.72;100.00;102150.41;2071864;28;20222;-60
2022/11/01 03:55:30;;;;;;;17.50;12.93;;;;;;;11.69;100.00;102148.44;2071512;28;20288;-60
2022/11/01 03:56:31;;;;;;;22.53;14.47;;;;;;;11.68;100.00;102144.88;2071682;28;20189;-59
2022/11/01 03:57:31;;;;;;;20.13;15.07;;;;;;;11.65;100.00;102142.91;2072204;28;20209;-60
2022/11/01 03:58:40;;;;;;;22.83;15.30;;;;;;;11.63;100.00;102150.84;2071866;28;20263;-59
2022/11/01 03:59:41;;;;;;;25.90;15.80;;;;;;;11.57;100.00;102143.28;2071211;28;20162;-60
2022/11/01 04:00:44;;;;;;;29.23;17.00;;;;;;;11.60;100.00;102151.66;2072627;28;20425;-59
2022/11/01 04:01:44;;;;;;;32.37;18.47;;;;;;;11.58;100.00;102150.44;2071984;28;20210;-59
2022/11/01 04:02:45;;;;;;;24.83;15.97;;;;;;;11.49;100.00;102148.09;2072418;28;20460;-59
2022/11/01 04:03:45;;;;;;;22.00;15.90;;;;;;;11.15;100.00;102097.06;2071684;28;20187;-59
2022/11/01 04:04:46;;;;;;;18.97;14.17;;;;;;;11.49;100.00;102161.19;2072040;28;20276;-59
2022/11/01 04:05:46;;;;;;;19.63;14.33;;;;;;;11.47;100.00;102160.81;2071325;28;20274;-60
2022/11/01 04:06:47;;;;;;;20.30;13.60;;;;;;;11.43;100.00;102166.34;2071886;28;20189;-60
2022/11/01 04:07:48;;;;;;;16.63;12.70;;;;;;;11.38;100.00;102161.19;2071976;28;20218;-60
2022/11/01 04:08:48;;;;;;;21.13;14.27;;;;;;;11.36;100.00;102169.16;2072475;28;20224;-59
2022/11/01 04:09:49;;;;;;;19.67;13.67;;;;;;;11.32;100.00;102157.25;2071699;28;20469;-59
2022/11/01 04:10:49;;;;;;;21.50;14.70;;;;;;;11.29;100.00;102174.72;2079663;28;20280;-59
2022/11/01 04:11:49;;;;;;;24.67;15.17;;;;;;;11.25;100.00;102168.38;2079674;28;20667;-60
2022/11/01 04:12:51;;;;;;;23.87;15.37;;;;;;;11.10;100.00;102164.06;2072089;28;20236;-60
2022/11/01 04:20:31;;;;;;;20.23;15.60;;;;;;;11.24;100.00;102172.34;2071975;28;20185;-59
2022/11/01 04:20:52;;;;;;;21.80;15.60;;;;;;;10.45;100.00;102088.84;2071336;28;20401;-59
2022/11/01 04:21:53;;;;;;;21.13;15.70;;;;;;;10.95;100.00;102170.81;2071634;28;20488;-59
2022/11/01 04:22:53;;;;;;;18.80;14.23;;;;;;;10.92;100.00;102173.59;2071605;28;20190;-59
2022/11/01 04:23:54;;;;;;;17.87;13.90;;;;;;;10.85;100.00;102157.75;2071695;28;20186;-59
2022/11/01 04:24:54;;;;;;;18.73;14.07;;;;;;;10.90;100.00;102164.84;2071833;28;20578;-59
2022/11/01 04:25:54;;;;;;;23.33;13.83;;;;;;;10.85;100.00;102171.59;2079221;28;20556;-60
2022/11/01 04:26:55;;;;;;;19.63;14.37;;;;;;;10.88;100.00;102173.59;2079741;28;20212;-59
2022/11/01 04:27:56;;;;;;;22.67;15.30;;;;;;;10.70;100.00;102150.59;2071532;28;20204;-60
2022/11/01 04:28:56;;;;;;;21.73;15.30;;;;;;;10.85;100.00;102171.59;2071385;28;20698;-59
2022/11/01 04:29:57;;;;;;;22.30;16.00;;;;;;;10.86;100.00;102169.63;2072066;28;20831;-59
2022/11/01 04:32:54;;;;;;;24.53;16.53;;;;;;;10.83;100.00;102176.75;2069077;28;20198;-60
2022/11/01 04:33:56;;;;;;;25.03;17.23;;;;;;;10.85;100.00;102174.38;2070944;28;20421;-60
2022/11/01 04:34:57;;;;;;;20.73;15.67;;;;;;;10.84;100.00;102185.88;2071470;28;20420;-59
2022/11/01 04:35:57;;;;;;;23.60;16.57;;;;;;;10.83;100.00;102184.28;2071094;28;20423;-60
2022/11/01 04:36:57;;;;;;;25.30;16.30;;;;;;;10.82;100.00;102185.47;2072008;28;20178;-60
2022/11/01 04:37:58;;;;;;;24.37;16.93;;;;;;;10.82;100.00;102182.69;2071401;28;20205;-59
2022/11/01 04:38:59;;;;;;;20.47;15.97;;;;;;;10.22;100.00;102101.50;2070560;28;20186;-59
2022/11/01 04:39:59;;;;;;;26.70;17.67;;;;;;;10.79;100.00;102183.47;2071585;28;20186;-59
2022/11/01 04:41:00;;;;;;;25.83;17.37;;;;;;;10.40;100.00;102130.03;2071438;28;20190;-60
2022/11/01 04:42:00;;;;;;;29.23;17.37;;;;;;;9.77;100.00;102042.06;2071380;28;20695;-59
2022/11/01 04:43:01;;;;;;;26.63;16.80;;;;;;;10.74;100.00;102190.22;2071540;28;20214;-59
2022/11/01 04:44:01;;;;;;;29.93;17.73;;;;;;;10.74;100.00;102186.66;2071410;28;20237;-59
2022/11/01 04:45:06;;;;;;;29.43;16.93;;;;;;;10.74;100.00;102184.69;2071477;28;20259;-60
2022/11/01 04:46:06;;;;;;;24.50;16.87;;;;;;;10.72;100.00;102192.59;2072102;28;20228;-59
2022/11/01 04:47:07;;;;;;;32.23;17.13;;;;;;;10.72;100.00;102194.59;2071885;28;20452;-59
2022/11/01 04:48:15;;;;;;;27.53;17.30;;;;;;;9.91;100.00;102078.09;2071185;28;20185;-60
2022/11/01 04:49:16;;;;;;;22.80;16.80;;;;;;;10.70;100.00;102189.44;2070849;28;20640;-59
2022/11/01 04:50:20;;;;;;;27.60;17.20;;;;;;;10.72;100.00;102189.03;2071385;28;20440;-59
2022/11/01 04:51:21;;;;;;;24.53;16.50;;;;;;;10.69;100.00;102200.91;2071680;28;20217;-59
2022/11/01 04:52:22;;;;;;;28.33;17.10;;;;;;;10.69;100.00;102200.91;2071128;28;20519;-59
2022/11/01 04:53:22;;;;;;;28.73;17.37;;;;;;;10.69;100.00;102200.91;2071351;28;20566;-59
2022/11/01 04:54:22;;;;;;;25.97;17.40;;;;;;;10.66;100.00;102198.94;2071266;28;20417;-59
2022/11/01 04:55:23;;;;;;;25.67;17.53;;;;;;;10.66;100.00;102196.16;2070915;28;20232;-59
2022/11/01 04:56:23;;;;;;;24.63;17.00;;;;;;;10.67;100.00;102200.53;2072030;28;20558;-60